createdAt,value
2022-08-12T00:02:05.609Z,2.00
2022-08-12T00:04:52.545Z,2.13
2022-08-12T00:07:39.515Z,2.05
2022-08-12T00:10:28.038Z,2.10
2022-08-12T00:13:18.090Z,2.50
2022-08-12T00:16:07.294Z,2.08
2022-08-12T00:18:54.382Z,2.25
2022-08-12T00:21:41.561Z,2.40
2022-08-12T00:24:29.222Z,2.22
2022-08-12T00:27:16.242Z,2.42
2022-08-12T00:30:06.511Z,2.47
2022-08-12T00:32:54.699Z,2.17
2022-08-12T00:35:42.975Z,2.70
2022-08-12T00:38:31.077Z,2.25
2022-08-12T00:41:18.434Z,2.30
2022-08-12T00:43:49.145Z,2.38
2022-08-12T00:46:35.538Z,2.42
2022-08-12T00:49:05.182Z,2.47
2022-08-12T00:51:47.979Z,2.70
2022-08-12T00:54:20.170Z,2.20
2022-08-12T00:56:50.896Z,2.20
2022-08-12T00:59:19.541Z,2.50
2022-08-12T01:02:11.632Z,2.50
2022-08-12T01:04:57.452Z,2.33
2022-08-12T01:07:45.091Z,2.22
2022-08-12T01:10:33.104Z,2.53
2022-08-12T01:13:18.238Z,2.40
2022-08-12T01:15:50.297Z,2.40
2022-08-12T01:18:21.077Z,2.60
2022-08-12T01:20:58.761Z,2.05
2022-08-12T01:23:50.185Z,2.42
2022-08-12T01:26:25.916Z,2.35
2022-08-12T01:28:58.808Z,2.30
2022-08-12T01:31:31.273Z,2.37
2022-08-12T01:34:04.492Z,2.40
2022-08-12T01:36:46.489Z,2.20
2022-08-12T01:39:16.824Z,2.08
2022-08-12T01:41:53.663Z,2.20
2022-08-12T01:44:23.482Z,2.38
2022-08-12T01:46:59.617Z,2.22
2022-08-12T01:49:46.388Z,2.20
2022-08-12T01:52:29.567Z,2.10
2022-08-12T01:55:00.965Z,2.10
2022-08-12T01:57:58.359Z,2.55
2022-08-12T02:00:54.788Z,2.13
2022-08-12T02:03:54.775Z,2.35
2022-08-12T02:06:45.658Z,2.30
2022-08-12T02:09:34.874Z,2.58
2022-08-12T02:12:10.378Z,2.53
2022-08-12T02:14:52.695Z,2.20
2022-08-12T02:17:55.543Z,2.40
2022-08-12T02:20:50.888Z,2.20
2022-08-12T02:23:21.492Z,2.35
2022-08-12T02:25:55.496Z,2.38
2022-08-12T02:28:26.686Z,2.30
2022-08-12T02:30:59.956Z,1.98
2022-08-12T02:33:29.097Z,2.47
2022-08-12T02:35:58.161Z,2.40
2022-08-12T02:38:28.831Z,2.25
2022-08-12T02:40:59.893Z,2.30
2022-08-12T02:43:35.134Z,2.80
2022-08-12T02:46:14.494Z,2.35
2022-08-12T02:48:48.859Z,2.15
2022-08-12T02:51:20.408Z,2.38
2022-08-12T02:54:04.680Z,2.70
2022-08-12T02:56:40.377Z,2.28
2022-08-12T02:59:11.856Z,2.45
2022-08-12T03:01:48.555Z,2.22
2022-08-12T03:04:26.623Z,2.50
2022-08-12T03:07:05.336Z,2.60
2022-08-12T03:10:03.637Z,2.65
2022-08-12T03:12:49.030Z,2.40
2022-08-12T03:15:22.397Z,2.53
2022-08-12T03:18:25.861Z,2.28
2022-08-12T03:20:46.918Z,2.47
2022-08-12T03:23:19.380Z,2.33
2022-08-12T03:26:06.820Z,2.63
2022-08-12T03:28:51.955Z,2.22
2022-08-12T03:31:22.219Z,2.70
2022-08-12T03:34:02.055Z,2.30
2022-08-12T03:36:35.925Z,2.20
2022-08-12T03:39:36.004Z,2.28
2022-08-12T03:42:17.433Z,2.47
2022-08-12T03:45:11.156Z,2.25
2022-08-12T03:48:02.636Z,2.42
2022-08-12T03:50:50.607Z,2.60
2022-08-12T03:53:44.635Z,2.60
2022-08-12T03:56:30.867Z,2.67
2022-08-12T03:59:18.350Z,2.58
2022-08-12T04:01:52.464Z,2.47
2022-08-12T04:04:23.399Z,2.80
2022-08-12T04:06:53.897Z,2.70
2022-08-12T04:09:23.170Z,2.60
2022-08-12T04:12:09.542Z,2.65
2022-08-12T04:14:38.053Z,2.40
2022-08-12T04:17:06.387Z,2.50
2022-08-12T04:19:38.321Z,2.63
2022-08-12T04:22:08.059Z,2.38
2022-08-12T04:24:36.786Z,2.53
2022-08-12T04:27:12.288Z,2.42
2022-08-12T04:30:31.838Z,2.40
2022-08-12T04:32:29.436Z,2.47
2022-08-12T04:34:58.958Z,2.50
2022-08-12T04:37:28.751Z,2.42
2022-08-12T04:40:27.985Z,2.38
2022-08-12T04:42:57.449Z,2.50
2022-08-12T04:45:28.714Z,2.13
2022-08-12T04:47:57.612Z,2.35
2022-08-12T04:50:35.745Z,2.50
2022-08-12T04:53:08.078Z,2.50
2022-08-12T04:55:38.575Z,2.38
2022-08-12T04:58:07.165Z,2.45
2022-08-12T05:00:36.180Z,2.70
2022-08-12T05:03:06.050Z,2.60
2022-08-12T05:05:36.536Z,2.40
2022-08-12T05:08:12.848Z,2.33
2022-08-12T05:10:41.260Z,2.60
2022-08-12T05:13:12.109Z,2.42
2022-08-12T05:16:04.857Z,2.40
2022-08-12T05:18:30.417Z,2.40
2022-08-12T05:20:59.787Z,2.78
2022-08-12T05:23:32.255Z,2.40
2022-08-12T05:26:01.489Z,2.42
2022-08-12T05:28:30.941Z,2.60
2022-08-12T05:31:02.046Z,2.40
2022-08-12T05:33:37.653Z,2.47
2022-08-12T05:36:12.539Z,2.30
2022-08-12T05:38:58.785Z,2.70
2022-08-12T05:41:28.797Z,2.08
2022-08-12T05:43:59.345Z,2.20
2022-08-12T05:46:29.649Z,2.17
2022-08-12T05:49:03.359Z,2.10
2022-08-12T05:51:40.646Z,2.20
2022-08-12T05:54:12.563Z,2.13
2022-08-12T05:56:42.790Z,2.10
2022-08-12T05:59:12.788Z,2.13
2022-08-12T06:02:10.230Z,1.80
2022-08-12T06:04:38.564Z,1.90
2022-08-12T06:08:00.076Z,2.10
2022-08-12T06:10:00.286Z,1.92
2022-08-12T06:12:28.807Z,2.05
2022-08-12T06:14:57.176Z,2.05
2022-08-12T06:17:25.566Z,2.30
2022-08-12T06:20:27.658Z,1.77
2022-08-12T06:22:43.462Z,1.90
2022-08-12T06:25:19.205Z,1.85
2022-08-12T06:28:07.266Z,1.90
2022-08-12T06:30:38.943Z,1.88
2022-08-12T06:33:21.920Z,1.80
2022-08-12T06:35:51.801Z,1.80
2022-08-12T06:38:21.885Z,1.98
2022-08-12T06:41:12.393Z,2.20
2022-08-12T06:44:05.915Z,2.00
2022-08-12T06:46:30.534Z,2.00
2022-08-12T06:48:59.790Z,2.00
2022-08-12T06:51:30.334Z,1.90
2022-08-12T06:53:59.189Z,1.80
2022-08-12T06:57:02.306Z,1.90
2022-08-12T07:01:55.009Z,1.77
2022-08-12T07:04:41.546Z,1.80
2022-08-12T07:07:10.980Z,2.08
2022-08-12T07:10:01.168Z,1.70
2022-08-12T07:12:35.939Z,1.70
2022-08-12T07:15:05.352Z,1.77
2022-08-12T07:17:37.824Z,1.60
2022-08-12T07:20:20.139Z,1.67
2022-08-12T07:22:59.622Z,1.80
2022-08-12T07:25:37.393Z,1.88
2022-08-12T07:28:16.701Z,1.70
2022-08-12T07:30:48.416Z,1.85
2022-08-12T07:33:17.771Z,1.58
2022-08-12T07:35:48.139Z,1.80
2022-08-12T07:38:29.072Z,2.00
2022-08-12T07:41:03.922Z,1.60
2022-08-12T07:43:40.013Z,1.60
2022-08-12T07:46:15.078Z,1.90
2022-08-12T07:48:45.741Z,2.00
2022-08-12T07:51:24.965Z,2.00
2022-08-12T07:54:02.997Z,1.83
2022-08-12T07:56:32.931Z,1.92
2022-08-12T07:59:02.992Z,1.85
2022-08-12T08:01:32.992Z,2.05
2022-08-12T08:04:19.708Z,1.90
2022-08-12T08:06:49.332Z,1.60
2022-08-12T08:09:21.150Z,1.65
2022-08-12T08:12:09.275Z,2.03
2022-08-12T08:14:51.986Z,1.80
2022-08-12T08:17:20.460Z,1.80
2022-08-12T08:20:03.206Z,1.70
2022-08-12T08:22:41.997Z,1.70
2022-08-12T08:25:20.113Z,1.85
2022-08-12T08:28:01.088Z,1.80
2022-08-12T08:30:32.536Z,1.90
2022-08-12T08:33:01.018Z,1.70
2022-08-12T08:35:46.134Z,1.70
2022-08-12T08:38:32.327Z,1.80
2022-08-12T08:42:15.530Z,1.95
2022-08-12T08:44:10.911Z,1.65
2022-08-12T08:46:44.346Z,2.00
2022-08-12T08:49:13.364Z,1.58
2022-08-12T08:51:42.593Z,1.85
2022-08-12T08:54:12.116Z,1.80
2022-08-12T08:56:44.112Z,1.75
2022-08-12T08:59:13.276Z,1.80
2022-08-12T09:01:44.181Z,1.73
2022-08-12T09:07:16.894Z,1.70
2022-08-12T09:10:03.224Z,2.00
2022-08-12T09:15:41.835Z,2.00
2022-08-12T09:18:12.770Z,2.40
2022-08-12T09:20:43.610Z,2.00
2022-08-12T09:28:55.423Z,1.70
2022-08-12T09:32:02.778Z,1.80
2022-08-12T09:34:27.351Z,1.90
2022-08-12T09:37:20.457Z,1.80
2022-08-12T09:40:06.365Z,1.75
2022-08-12T09:43:17.282Z,2.25
2022-08-12T09:46:14.125Z,1.90
2022-08-12T09:48:44.814Z,1.70
2022-08-12T09:51:38.105Z,1.95
2022-08-12T09:54:33.900Z,1.92
2022-08-12T09:58:45.729Z,1.90
2022-08-12T10:00:15.232Z,1.90
2022-08-12T10:03:07.913Z,1.70
2022-08-12T10:06:27.037Z,1.77
2022-08-12T10:08:46.809Z,1.77
2022-08-12T10:12:10.562Z,1.90
2022-08-12T10:14:35.315Z,1.80
2022-08-12T10:17:08.887Z,1.88
2022-08-12T10:19:37.709Z,1.70
2022-08-12T10:22:16.810Z,2.00
2022-08-12T10:25:17.329Z,1.70
2022-08-12T10:28:08.341Z,1.77
2022-08-12T10:30:44.229Z,1.80
2022-08-12T10:33:31.464Z,1.70
2022-08-12T10:36:01.884Z,1.80
2022-08-12T10:38:37.133Z,1.40
2022-08-12T10:41:56.980Z,1.83
2022-08-12T10:44:16.811Z,1.80
2022-08-12T10:46:49.907Z,1.85
2022-08-12T10:50:02.658Z,1.60
2022-08-12T10:52:34.137Z,1.70
2022-08-12T10:54:56.461Z,1.80
2022-08-12T10:58:13.230Z,1.80
2022-08-12T11:00:34.945Z,1.50
2022-08-12T11:04:23.264Z,1.80
2022-08-12T11:07:05.444Z,1.60
2022-08-12T11:08:47.165Z,1.73
2022-08-12T11:12:07.544Z,2.00
2022-08-12T11:14:49.669Z,1.70
2022-08-12T11:17:34.316Z,1.63
2022-08-12T11:19:51.082Z,1.98
2022-08-12T11:22:24.025Z,2.00
2022-08-12T11:24:55.291Z,1.90
2022-08-12T11:27:23.922Z,2.03
2022-08-12T11:30:00.526Z,2.17
2022-08-12T11:32:39.017Z,1.70
2022-08-12T11:37:58.118Z,1.77
2022-08-12T11:40:26.983Z,1.70
2022-08-12T11:43:17.175Z,1.63
2022-08-12T11:45:47.604Z,1.60
2022-08-12T11:48:26.682Z,1.60
2022-08-12T11:51:00.797Z,1.80
2022-08-12T11:53:59.345Z,1.90
2022-08-12T11:56:17.531Z,1.70
2022-08-12T12:01:58.188Z,1.90
2022-08-12T12:04:29.126Z,1.77
2022-08-12T12:07:07.512Z,1.60
2022-08-12T12:09:52.544Z,1.65
2022-08-12T12:12:25.177Z,1.65
2022-08-12T12:15:01.623Z,1.90
2022-08-12T12:17:38.804Z,1.50
2022-08-12T12:20:09.898Z,1.70
2022-08-12T12:22:39.214Z,1.63
2022-08-12T12:25:12.964Z,1.80
2022-08-12T12:28:04.139Z,1.70
2022-08-12T12:30:33.854Z,1.60
2022-08-12T12:33:04.329Z,1.80
2022-08-12T12:36:06.561Z,1.60
2022-08-12T12:38:25.129Z,1.50
2022-08-12T12:40:54.824Z,1.60
2022-08-12T12:43:28.743Z,1.75
2022-08-12T12:46:11.123Z,1.60
2022-08-12T12:48:44.262Z,1.92
2022-08-12T12:51:49.225Z,1.67
2022-08-12T12:56:42.261Z,1.80
2022-08-12T12:59:54.912Z,1.73
2022-08-12T13:02:07.575Z,1.52
2022-08-12T13:04:38.563Z,1.60
2022-08-12T13:07:07.863Z,1.70
2022-08-12T13:09:36.974Z,1.70
2022-08-12T13:12:08.801Z,1.60
2022-08-12T13:14:40.081Z,1.52
2022-08-12T13:17:11.234Z,1.63
2022-08-12T13:19:46.851Z,1.60
2022-08-12T13:22:19.902Z,1.60
2022-08-12T13:24:55.030Z,1.50
2022-08-12T13:27:35.062Z,1.40
2022-08-12T13:30:11.401Z,1.58
2022-08-12T13:32:57.101Z,1.50
2022-08-12T13:35:33.359Z,1.30
2022-08-12T13:38:16.076Z,1.33
2022-08-12T13:41:03.285Z,1.48
2022-08-12T13:43:41.054Z,1.48
2022-08-12T13:46:11.967Z,1.23
2022-08-12T13:48:45.792Z,1.50
2022-08-12T13:51:24.082Z,1.50
2022-08-12T13:53:59.084Z,1.40
2022-08-12T13:56:36.932Z,1.40
2022-08-12T13:59:07.887Z,1.52
2022-08-12T14:01:40.396Z,1.30
2022-08-12T14:04:11.454Z,1.30
2022-08-12T14:06:43.403Z,1.30
2022-08-12T14:09:17.632Z,1.70
2022-08-12T14:11:58.455Z,1.33
2022-08-12T14:14:31.441Z,1.35
2022-08-12T14:17:09.980Z,1.30
2022-08-12T14:20:00.657Z,1.50
2022-08-12T14:22:32.015Z,1.30
2022-08-12T14:25:03.403Z,1.33
2022-08-12T14:28:02.783Z,1.33
2022-08-12T14:30:28.995Z,1.60
2022-08-12T14:33:03.330Z,1.35
2022-08-12T14:35:40.978Z,1.40
2022-08-12T14:38:17.130Z,1.40
2022-08-12T14:40:56.464Z,1.40
2022-08-12T14:43:44.223Z,1.30
2022-08-12T14:46:24.017Z,1.30
2022-08-12T14:48:54.003Z,1.38
2022-08-12T14:52:54.092Z,1.40
2022-08-12T14:57:20.431Z,1.50
2022-08-12T15:00:10.179Z,1.30
2022-08-12T15:02:39.985Z,1.60
2022-08-12T15:05:08.951Z,1.40
2022-08-12T15:07:50.292Z,1.20
2022-08-12T15:10:31.139Z,1.27
2022-08-12T15:13:07.400Z,1.55
2022-08-12T15:15:43.645Z,1.40
2022-08-12T15:18:14.671Z,1.27
2022-08-12T15:20:43.146Z,1.52
2022-08-12T15:23:17.882Z,1.38
2022-08-12T15:26:02.509Z,1.30
2022-08-12T15:28:33.997Z,1.40
2022-08-12T15:31:21.265Z,1.40
2022-08-12T15:33:52.760Z,1.42
2022-08-12T15:36:54.060Z,1.50
2022-08-12T15:39:16.426Z,1.60
2022-08-12T15:41:49.219Z,1.30
2022-08-12T15:44:38.613Z,1.42
2022-08-12T15:47:08.791Z,1.50
2022-08-12T15:49:54.158Z,1.65
2022-08-12T15:52:27.266Z,1.52
2022-08-12T15:54:58.643Z,1.50
2022-08-12T15:57:33.405Z,1.35
2022-08-12T16:00:07.309Z,1.50
2022-08-12T16:02:50.545Z,1.42
2022-08-12T16:06:11.924Z,1.33
2022-08-12T16:08:16.377Z,1.30
2022-08-12T16:10:47.111Z,1.40
2022-08-12T16:13:32.315Z,1.33
2022-08-12T16:16:03.485Z,1.40
2022-08-12T16:18:37.204Z,1.40
2022-08-12T16:21:50.452Z,1.27
2022-08-12T16:23:59.856Z,1.20
2022-08-12T16:26:34.953Z,1.40
2022-08-12T16:29:15.542Z,1.20
2022-08-12T16:31:45.212Z,1.30
2022-08-12T16:34:26.025Z,1.40
2022-08-12T16:37:07.721Z,1.13
2022-08-12T16:39:59.739Z,1.30
2022-08-12T16:42:27.936Z,1.35
2022-08-12T16:45:02.243Z,1.20
2022-08-12T16:47:57.688Z,1.40
2022-08-12T16:50:30.980Z,1.20
2022-08-12T16:53:02.369Z,1.40
2022-08-12T16:55:41.994Z,1.40
2022-08-12T16:58:28.510Z,1.30
2022-08-12T17:01:01.973Z,1.50
2022-08-12T17:03:36.553Z,1.25
2022-08-12T17:06:06.415Z,1.15
2022-08-12T17:08:34.981Z,1.30
2022-08-12T17:11:08.441Z,1.40
2022-08-12T17:13:36.985Z,1.23
2022-08-12T17:16:24.132Z,1.30
2022-08-12T17:18:57.196Z,1.40
2022-08-12T17:24:21.321Z,1.30
2022-08-12T17:26:53.961Z,1.40
2022-08-12T17:29:32.544Z,1.38
2022-08-12T17:32:14.304Z,1.10
2022-08-12T17:35:00.859Z,1.40
2022-08-12T17:37:29.499Z,1.30
2022-08-12T17:40:15.359Z,1.40
2022-08-12T17:42:47.610Z,1.30
2022-08-12T17:45:19.595Z,1.20
2022-08-12T17:48:04.646Z,1.38
2022-08-12T17:50:36.281Z,1.30
2022-08-12T17:53:05.854Z,1.30
2022-08-12T17:55:40.162Z,1.20
2022-08-12T17:58:14.184Z,1.10
2022-08-12T18:00:45.372Z,1.20
2022-08-12T18:03:57.658Z,1.13
2022-08-12T18:06:13.689Z,1.20
2022-08-12T18:08:54.395Z,1.20
2022-08-12T18:12:04.750Z,1.10
2022-08-12T18:14:37.018Z,1.00
2022-08-12T18:17:08.454Z,1.10
2022-08-12T18:20:07.040Z,1.15
2022-08-12T18:22:31.687Z,1.02
2022-08-12T18:26:12.269Z,1.00
2022-08-12T18:28:15.827Z,1.10
2022-08-12T18:30:52.358Z,1.20
2022-08-12T18:33:24.862Z,1.05
2022-08-12T18:35:57.008Z,1.10
2022-08-12T18:38:27.752Z,1.13
2022-08-12T18:41:20.841Z,1.17
2022-08-12T18:43:59.946Z,0.93
2022-08-12T18:46:54.309Z,1.00
2022-08-12T18:49:30.810Z,1.10
2022-08-12T18:52:05.675Z,1.15
2022-08-12T18:54:41.238Z,1.13
2022-08-12T18:57:19.889Z,1.10
2022-08-12T19:00:06.389Z,1.17
2022-08-12T19:02:39.880Z,1.17
2022-08-12T19:05:11.685Z,1.00
2022-08-12T19:07:50.102Z,1.10
2022-08-12T19:10:29.852Z,1.13
2022-08-12T19:13:23.530Z,1.20
2022-08-12T19:15:57.884Z,1.15
2022-08-12T19:18:30.968Z,1.27
2022-08-12T19:21:00.387Z,1.10
2022-08-12T19:23:41.325Z,1.10
2022-08-12T19:26:10.725Z,1.10
2022-08-12T19:28:41.452Z,1.13
2022-08-12T19:31:58.371Z,1.13
2022-08-12T19:37:20.094Z,1.15
2022-08-12T19:40:09.345Z,1.27
2022-08-12T19:42:44.695Z,1.20
2022-08-12T19:45:15.808Z,1.00
2022-08-12T19:47:46.543Z,1.10
2022-08-12T19:50:20.107Z,1.35
2022-08-12T19:52:51.388Z,1.20
2022-08-12T19:55:27.239Z,1.30
2022-08-12T19:58:01.395Z,1.50
2022-08-12T20:00:32.144Z,1.30
2022-08-12T20:03:06.256Z,1.30
2022-08-12T20:06:05.028Z,1.30
2022-08-12T20:08:34.052Z,1.30
2022-08-12T20:12:13.856Z,1.10
2022-08-12T20:14:00.783Z,1.20
2022-08-12T20:16:56.436Z,1.40
2022-08-12T20:19:52.678Z,1.30
2022-08-12T20:22:23.841Z,1.38
2022-08-12T20:24:55.287Z,1.20
2022-08-12T20:28:03.423Z,1.45
2022-08-12T20:30:38.162Z,1.45
2022-08-12T20:33:18.515Z,1.20
2022-08-12T20:36:06.458Z,1.20
2022-08-12T20:38:42.139Z,1.30
2022-08-12T20:41:17.366Z,1.40
2022-08-12T20:43:51.988Z,1.30
2022-08-12T20:46:24.033Z,1.50
2022-08-12T20:48:57.778Z,1.50
2022-08-12T20:51:28.055Z,1.40
2022-08-12T20:54:00.996Z,1.38
2022-08-12T20:56:34.699Z,1.33
2022-08-12T20:59:09.541Z,1.30
2022-08-12T21:01:47.867Z,1.40
2022-08-12T21:04:39.430Z,1.23
2022-08-12T21:07:10.397Z,1.40
2022-08-12T21:09:42.425Z,1.30
2022-08-12T21:12:31.325Z,1.50
2022-08-12T21:15:22.839Z,1.38
2022-08-12T21:18:11.642Z,1.45
2022-08-12T21:20:50.653Z,1.40
2022-08-12T21:23:21.288Z,1.20
2022-08-12T21:25:51.105Z,1.25
2022-08-12T21:28:27.539Z,1.33
2022-08-12T21:32:34.976Z,1.17
2022-08-12T21:34:06.990Z,1.30
2022-08-12T21:36:48.111Z,1.35
2022-08-12T21:39:27.906Z,1.23
2022-08-12T21:42:06.857Z,1.40
2022-08-12T21:45:45.410Z,1.25
2022-08-12T21:47:28.650Z,1.17
2022-08-12T21:50:02.890Z,1.40
2022-08-12T21:52:36.172Z,1.25
2022-08-12T21:55:18.911Z,1.35
2022-08-12T21:57:53.326Z,1.20
2022-08-12T22:00:33.002Z,1.15
2022-08-12T22:04:01.568Z,1.10
2022-08-12T22:06:31.463Z,1.25
2022-08-12T22:09:15.635Z,1.20
2022-08-12T22:11:49.323Z,1.08
2022-08-12T22:14:25.549Z,1.20
2022-08-12T22:16:55.631Z,1.10
2022-08-12T22:19:26.779Z,1.23
2022-08-12T22:21:58.685Z,1.20
2022-08-12T22:24:30.316Z,1.10
2022-08-12T22:27:08.260Z,1.10
2022-08-12T22:30:07.374Z,1.00
2022-08-12T22:32:38.589Z,1.02
2022-08-12T22:35:29.410Z,1.17
2022-08-12T22:38:10.906Z,1.00
2022-08-12T22:40:40.358Z,0.90
2022-08-12T22:43:29.876Z,1.13
2022-08-12T22:46:15.789Z,1.05
2022-08-12T22:48:50.286Z,1.10
2022-08-12T22:51:24.108Z,1.00
2022-08-12T22:53:54.301Z,0.90
2022-08-12T22:56:30.859Z,0.90
2022-08-12T22:59:02.922Z,1.00
2022-08-12T23:02:01.075Z,1.00
2022-08-12T23:04:27.636Z,1.08
2022-08-12T23:07:05.431Z,0.90
2022-08-12T23:09:48.008Z,1.00
2022-08-12T23:12:41.152Z,0.90
2022-08-12T23:15:15.657Z,1.02
2022-08-12T23:17:45.963Z,1.00
2022-08-12T23:20:15.057Z,0.90
2022-08-12T23:23:02.600Z,0.90
2022-08-12T23:25:55.325Z,0.98
2022-08-12T23:28:42.360Z,1.00
2022-08-12T23:31:11.355Z,0.90
2022-08-12T23:34:00.734Z,0.90
2022-08-12T23:36:31.870Z,1.00
2022-08-12T23:40:13.738Z,1.00
2022-08-12T23:42:17.836Z,1.00
2022-08-12T23:44:48.636Z,0.90
2022-08-12T23:47:21.735Z,0.90
2022-08-12T23:49:57.571Z,0.90
2022-08-12T23:52:34.623Z,1.10
2022-08-12T23:55:24.063Z,1.00
2022-08-12T23:58:22.497Z,1.08
